Terminal Aerodrome Forecast
Issued by NWS Wilmington, OH

Current Version | Previous Version | Graphics & Text | Print | Product List | Glossary On
Versions: 1 2 3 4 5 6 7 8 9 10 11 12 13 14 15 16 17 18 19 20 21 22 23 24 25
000
FTUS41 KILN 051737
TAFCVG
TAF
KCVG 051737Z 0518/0624 19007KT P6SM FEW200
     FM060000 22005KT P6SM BKN040
     FM060600 27004KT P6SM SCT100
     FM061300 23007KT P6SM SCT080
     FM061800 23007KT P6SM BKN040=

USA.gov is the U.S. government's official web portal to all federal, state and local government web resources and services.